sensor_id;sensor_type;location;lat;lon;timestamp;pressure;altitude;pressure_sealevel;temperature;humidity
76694;BME280;65625;52.136;5.424;2023-03-03T00:00:01;102647.44;;;0.74;92.52
76694;BME280;65625;52.136;5.424;2023-03-03T00:02:37;102642.13;;;0.74;92.54
76694;BME280;65625;52.136;5.424;2023-03-03T00:05:04;102646.56;;;0.74;92.90
76694;BME280;65625;52.136;5.424;2023-03-03T00:07:31;102643.03;;;0.75;92.78
76694;BME280;65625;52.136;5.424;2023-03-03T00:09:57;102644.81;;;0.71;92.83
76694;BME280;65625;52.136;5.424;2023-03-03T00:12:26;102645.69;;;0.75;92.61
76694;BME280;65625;52.136;5.424;2023-03-03T00:14:53;102642.09;;;0.79;92.72
76694;BME280;65625;52.136;5.424;2023-03-03T00:17:22;102637.66;;;0.82;92.40
76694;BME280;65625;52.136;5.424;2023-03-03T00:19:50;102637.63;;;0.84;92.80
76694;BME280;65625;52.136;5.424;2023-03-03T00:22:27;102648.22;;;0.91;92.31
76694;BME280;65625;52.136;5.424;2023-03-03T00:24:57;102647.28;;;1.00;92.52
76694;BME280;65625;52.136;5.424;2023-03-03T00:27:34;102651.63;;;1.07;92.37
76694;BME280;65625;52.136;5.424;2023-03-03T00:30:02;102656.94;;;1.11;92.48
76694;BME280;65625;52.136;5.424;2023-03-03T00:32:44;102655.16;;;1.15;92.72
76694;BME280;65625;52.136;5.424;2023-03-03T00:35:29;102664.84;;;1.19;92.86
76694;BME280;65625;52.136;5.424;2023-03-03T00:38:18;102667.47;;;1.22;92.22
76694;BME280;65625;52.136;5.424;2023-03-03T00:40:47;102669.25;;;1.24;91.56
76694;BME280;65625;52.136;5.424;2023-03-03T00:43:18;102663.94;;;1.21;91.63
76694;BME280;65625;52.136;5.424;2023-03-03T00:48:25;102656.91;;;1.16;92.18
76694;BME280;65625;52.136;5.424;2023-03-03T00:50:57;102669.31;;;1.14;91.97
76694;BME280;65625;52.136;5.424;2023-03-03T00:53:29;102667.53;;;1.14;91.76
76694;BME280;65625;52.136;5.424;2023-03-03T00:55:56;102671.97;;;1.18;92.57
76694;BME280;65625;52.136;5.424;2023-03-03T00:58:24;102666.63;;;1.20;91.86
76694;BME280;65625;52.136;5.424;2023-03-03T01:00:52;102671.00;;;1.24;92.55
76694;BME280;65625;52.136;5.424;2023-03-03T01:03:25;102671.03;;;1.22;92.13
76694;BME280;65625;52.136;5.424;2023-03-03T01:05:53;102674.56;;;1.23;91.93
76694;BME280;65625;52.136;5.424;2023-03-03T01:08:20;102681.66;;;1.22;91.58
76694;BME280;65625;52.136;5.424;2023-03-03T01:10:49;102671.03;;;1.22;92.28
76694;BME280;65625;52.136;5.424;2023-03-03T01:13:21;102678.09;;;1.26;92.37
76694;BME280;65625;52.136;5.424;2023-03-03T01:15:49;102676.31;;;1.25;92.46
76694;BME280;65625;52.136;5.424;2023-03-03T01:18:15;102683.41;;;1.26;92.58
76694;BME280;65625;52.136;5.424;2023-03-03T01:20:42;102679.88;;;1.26;91.63
76694;BME280;65625;52.136;5.424;2023-03-03T01:23:08;102678.94;;;1.27;92.20
76694;BME280;65625;52.136;5.424;2023-03-03T01:25:35;102672.78;;;1.25;92.26
76694;BME280;65625;52.136;5.424;2023-03-03T01:28:03;102670.13;;;1.26;92.33
76694;BME280;65625;52.136;5.424;2023-03-03T01:30:31;102671.88;;;1.27;91.86
76694;BME280;65625;52.136;5.424;2023-03-03T01:32:57;102675.38;;;1.31;92.02
76694;BME280;65625;52.136;5.424;2023-03-03T01:35:24;102673.59;;;1.33;91.45
76694;BME280;65625;52.136;5.424;2023-03-03T01:37:50;102672.72;;;1.33;92.31
76694;BME280;65625;52.136;5.424;2023-03-03T01:40:21;102674.47;;;1.33;92.31
76694;BME280;65625;52.136;5.424;2023-03-03T01:42:48;102670.94;;;1.33;91.31
76694;BME280;65625;52.136;5.424;2023-03-03T01:45:24;102678.94;;;1.27;91.93
76694;BME280;65625;52.136;5.424;2023-03-03T01:47:57;102686.94;;;1.27;92.01
76694;BME280;65625;52.136;5.424;2023-03-03T01:50:35;102677.19;;;1.27;92.34
76694;BME280;65625;52.136;5.424;2023-03-03T01:53:05;102673.63;;;1.30;91.47
76694;BME280;65625;52.136;5.424;2023-03-03T01:55:38;102674.50;;;1.30;92.29
76694;BME280;65625;52.136;5.424;2023-03-03T02:00:33;102676.31;;;1.25;91.62
76694;BME280;65625;52.136;5.424;2023-03-03T02:03:02;102686.94;;;1.25;91.59
76694;BME280;65625;52.136;5.424;2023-03-03T02:05:29;102680.78;;;1.25;91.52
76694;BME280;65625;52.136;5.424;2023-03-03T02:07:56;102677.19;;;1.27;91.85
76694;BME280;65625;52.136;5.424;2023-03-03T02:10:23;102675.41;;;1.28;92.25
76694;BME280;65625;52.136;5.424;2023-03-03T02:12:54;102678.09;;;1.28;92.33
76694;BME280;65625;52.136;5.424;2023-03-03T02:15:30;102676.31;;;1.25;91.99
76694;BME280;65625;52.136;5.424;2023-03-03T02:18:08;102678.94;;;1.27;91.82
76694;BME280;65625;52.136;5.424;2023-03-03T02:28:29;102672.81;;;1.23;91.54
76694;BME280;65625;52.136;5.424;2023-03-03T02:31:00;102672.81;;;1.23;91.68
76694;BME280;65625;52.136;5.424;2023-03-03T02:33:27;102679.00;;;1.24;91.30
76694;BME280;65625;52.136;5.424;2023-03-03T02:35:55;102676.31;;;1.25;91.54
76694;BME280;65625;52.136;5.424;2023-03-03T02:43:58;102679.00;;;1.21;91.01
76694;BME280;65625;52.136;5.424;2023-03-03T02:46:32;102670.16;;;1.19;91.13
76694;BME280;65625;52.136;5.424;2023-03-03T02:49:00;102674.59;;;1.17;91.29
76694;BME280;65625;52.136;5.424;2023-03-03T02:51:27;102674.63;;;1.18;91.36
76694;BME280;65625;52.136;5.424;2023-03-03T02:53:53;102674.63;;;1.18;91.69
76694;BME280;65625;52.136;5.424;2023-03-03T02:56:20;102666.63;;;1.21;91.48
76694;BME280;65625;52.136;5.424;2023-03-03T02:58:47;102676.31;;;1.25;91.49
76694;BME280;65625;52.136;5.424;2023-03-03T03:01:13;102685.19;;;1.26;91.50
76694;BME280;65625;52.136;5.424;2023-03-03T03:03:41;102681.63;;;1.30;91.90
76694;BME280;65625;52.136;5.424;2023-03-03T03:06:08;102681.59;;;1.33;91.82
76694;BME280;65625;52.136;5.424;2023-03-03T03:08:34;102686.94;;;1.27;91.76
76694;BME280;65625;52.136;5.424;2023-03-03T03:11:02;102687.00;;;1.21;91.60
76694;BME280;65625;52.136;5.424;2023-03-03T03:13:29;102677.25;;;1.17;92.07
76694;BME280;65625;52.136;5.424;2023-03-03T03:15:57;102677.25;;;1.20;92.04
76694;BME280;65625;52.136;5.424;2023-03-03T03:18:26;102686.13;;;1.19;91.64
76694;BME280;65625;52.136;5.424;2023-03-03T03:20:55;102671.91;;;1.23;92.04
76694;BME280;65625;52.136;5.424;2023-03-03T03:23:21;102670.13;;;1.25;92.17
76694;BME280;65625;52.136;5.424;2023-03-03T03:25:48;102671.88;;;1.26;91.93
76694;BME280;65625;52.136;5.424;2023-03-03T03:28:22;102676.31;;;1.25;92.05
76694;BME280;65625;52.136;5.424;2023-03-03T03:30:49;102675.47;;;1.20;91.72
76694;BME280;65625;52.136;5.424;2023-03-03T03:33:18;102677.22;;;1.23;91.44
76694;BME280;65625;52.136;5.424;2023-03-03T03:35:44;102679.00;;;1.21;92.20
76694;BME280;65625;52.136;5.424;2023-03-03T03:38:15;102685.22;;;1.21;91.44
76694;BME280;65625;52.136;5.424;2023-03-03T03:40:42;102676.34;;;1.21;91.36
76694;BME280;65625;52.136;5.424;2023-03-03T03:43:09;102682.56;;;1.23;91.27
76694;BME280;65625;52.136;5.424;2023-03-03T03:45:36;102686.94;;;1.25;91.96
76694;BME280;65625;52.136;5.424;2023-03-03T03:48:03;102684.31;;;1.24;91.53
76694;BME280;65625;52.136;5.424;2023-03-03T03:50:31;102690.53;;;1.23;91.64
76694;BME280;65625;52.136;5.424;2023-03-03T03:52:57;102693.22;;;1.20;91.91
76694;BME280;65625;52.136;5.424;2023-03-03T03:55:24;102687.91;;;1.18;91.14
76694;BME280;65625;52.136;5.424;2023-03-03T03:57:51;102685.25;;;1.15;91.81
76694;BME280;65625;52.136;5.424;2023-03-03T04:00:17;102696.81;;;1.13;91.97
76694;BME280;65625;52.136;5.424;2023-03-03T04:02:51;102700.34;;;1.10;92.25
76694;BME280;65625;52.136;5.424;2023-03-03T04:05:18;102695.91;;;1.14;92.31
76694;BME280;65625;52.136;5.424;2023-03-03T04:07:45;102696.78;;;1.14;91.94
76694;BME280;65625;52.136;5.424;2023-03-03T04:10:13;102705.66;;;1.16;92.06
76694;BME280;65625;52.136;5.424;2023-03-03T04:12:39;102698.53;;;1.20;92.15
76694;BME280;65625;52.136;5.424;2023-03-03T04:15:12;102701.22;;;1.18;92.39
76694;BME280;65625;52.136;5.424;2023-03-03T04:17:39;102689.69;;;1.16;92.76
76694;BME280;65625;52.136;5.424;2023-03-03T04:20:08;102691.50;;;1.13;92.03
76694;BME280;65625;52.136;5.424;2023-03-03T04:22:36;102697.69;;;1.12;92.43
76694;BME280;65625;52.136;5.424;2023-03-03T04:25:04;102695.91;;;1.12;92.06
76694;BME280;65625;52.136;5.424;2023-03-03T04:27:36;102696.84;;;1.10;92.14
76694;BME280;65625;52.136;5.424;2023-03-03T04:30:04;102699.50;;;1.08;92.03
76694;BME280;65625;52.136;5.424;2023-03-03T04:32:31;102698.59;;;1.09;92.86
76694;BME280;65625;52.136;5.424;2023-03-03T04:35:01;102696.84;;;1.10;92.29
76694;BME280;65625;52.136;5.424;2023-03-03T04:37:36;102695.94;;;1.11;93.00
76694;BME280;65625;52.136;5.424;2023-03-03T04:40:05;102695.03;;;1.10;93.01
76694;BME280;65625;52.136;5.424;2023-03-03T04:42:33;102697.69;;;1.10;92.40
76694;BME280;65625;52.136;5.424;2023-03-03T04:45:00;102692.38;;;1.10;92.95
76694;BME280;65625;52.136;5.424;2023-03-03T04:47:26;102700.34;;;1.13;93.20
76694;BME280;65625;52.136;5.424;2023-03-03T04:49:53;102709.16;;;1.17;92.70
76694;BME280;65625;52.136;5.424;2023-03-03T04:52:20;102704.75;;;1.17;93.17
76694;BME280;65625;52.136;5.424;2023-03-03T04:54:47;102698.53;;;1.15;93.12
76694;BME280;65625;52.136;5.424;2023-03-03T04:57:13;102707.41;;;1.17;92.53
76694;BME280;65625;52.136;5.424;2023-03-03T04:59:40;102710.03;;;1.20;93.28
76694;BME280;65625;52.136;5.424;2023-03-03T05:02:06;102710.03;;;1.20;92.97
76694;BME280;65625;52.136;5.424;2023-03-03T05:04:33;102707.38;;;1.20;92.96
76694;BME280;65625;52.136;5.424;2023-03-03T05:07:00;102697.63;;;1.21;92.78
76694;BME280;65625;52.136;5.424;2023-03-03T05:09:26;102698.53;;;1.21;92.86
76694;BME280;65625;52.136;5.424;2023-03-03T05:11:53;102689.63;;;1.22;93.97
76694;BME280;65625;52.136;5.424;2023-03-03T05:14:20;102692.25;;;1.25;93.82
76694;BME280;65625;52.136;5.424;2023-03-03T05:16:46;102688.72;;;1.26;92.95
76694;BME280;65625;52.136;5.424;2023-03-03T05:19:13;102696.69;;;1.29;93.15
76694;BME280;65625;52.136;5.424;2023-03-03T05:21:39;102698.41;;;1.33;93.07
76694;BME280;65625;52.136;5.424;2023-03-03T05:24:08;102690.44;;;1.32;93.66
76694;BME280;65625;52.136;5.424;2023-03-03T05:26:35;102693.09;;;1.33;93.19
76694;BME280;65625;52.136;5.424;2023-03-03T05:29:03;102700.19;;;1.33;93.84
76694;BME280;65625;52.136;5.424;2023-03-03T05:31:29;102709.94;;;1.33;93.81
76694;BME280;65625;52.136;5.424;2023-03-03T05:33:56;102691.34;;;1.33;93.85
76694;BME280;65625;52.136;5.424;2023-03-03T05:36:23;102694.84;;;1.36;93.79
76694;BME280;65625;52.136;5.424;2023-03-03T05:38:50;102699.28;;;1.40;93.43
76694;BME280;65625;52.136;5.424;2023-03-03T05:41:16;102693.94;;;1.40;94.31
76694;BME280;65625;52.136;5.424;2023-03-03T05:43:43;102699.25;;;1.43;93.37
76694;BME280;65625;52.136;5.424;2023-03-03T05:46:10;102698.34;;;1.43;93.89
76694;BME280;65625;52.136;5.424;2023-03-03T05:48:36;102706.28;;;1.47;94.60
76694;BME280;65625;52.136;5.424;2023-03-03T05:51:03;102700.06;;;1.50;94.40
76694;BME280;65625;52.136;5.424;2023-03-03T05:53:29;102705.38;;;1.50;94.27
76694;BME280;65625;52.136;5.424;2023-03-03T05:55:56;102703.59;;;1.53;93.57
76694;BME280;65625;52.136;5.424;2023-03-03T05:58:23;102696.47;;;1.52;94.54
76694;BME280;65625;52.136;5.424;2023-03-03T06:00:49;102706.25;;;1.52;94.12
76694;BME280;65625;52.136;5.424;2023-03-03T06:03:16;102705.34;;;1.54;94.48
76694;BME280;65625;52.136;5.424;2023-03-03T06:05:43;102708.88;;;1.55;94.00
76694;BME280;65625;52.136;5.424;2023-03-03T06:08:09;102707.94;;;1.59;94.88
76694;BME280;65625;52.136;5.424;2023-03-03T06:10:36;102705.31;;;1.57;94.30
76694;BME280;65625;52.136;5.424;2023-03-03T06:13:05;102714.16;;;1.59;94.15
76694;BME280;65625;52.136;5.424;2023-03-03T06:15:32;102707.97;;;1.60;94.01
76694;BME280;65625;52.136;5.424;2023-03-03T06:17:58;102714.13;;;1.62;94.57
76694;BME280;65625;52.136;5.424;2023-03-03T06:20:25;102715.94;;;1.57;94.96
76694;BME280;65625;52.136;5.424;2023-03-03T06:22:51;102723.91;;;1.62;95.03
76694;BME280;65625;52.136;5.424;2023-03-03T06:25:18;102727.44;;;1.61;95.04
76694;BME280;65625;52.136;5.424;2023-03-03T06:27:44;102720.38;;;1.60;94.88
76694;BME280;65625;52.136;5.424;2023-03-03T06:30:11;102729.25;;;1.62;94.43
76694;BME280;65625;52.136;5.424;2023-03-03T06:32:38;102731.03;;;1.60;94.64
76694;BME280;65625;52.136;5.424;2023-03-03T06:35:05;102723.03;;;1.61;94.87
76694;BME280;65625;52.136;5.424;2023-03-03T06:37:32;102727.44;;;1.65;95.29
76694;BME280;65625;52.136;5.424;2023-03-03T06:39:58;102730.09;;;1.65;95.48
76694;BME280;65625;52.136;5.424;2023-03-03T06:42:25;102723.00;;;1.64;94.60
76694;BME280;65625;52.136;5.424;2023-03-03T06:44:52;102731.84;;;1.66;95.41
76694;BME280;65625;52.136;5.424;2023-03-03T06:47:18;102734.47;;;1.69;95.36
76694;BME280;65625;52.136;5.424;2023-03-03T06:49:45;102733.56;;;1.73;95.22
76694;BME280;65625;52.136;5.424;2023-03-03T06:52:13;102738.03;;;1.70;95.07
76694;BME280;65625;52.136;5.424;2023-03-03T06:54:42;102745.13;;;1.69;94.65
76694;BME280;65625;52.136;5.424;2023-03-03T06:57:22;102748.66;;;1.71;94.81
76694;BME280;65625;52.136;5.424;2023-03-03T06:59:52;102746.84;;;1.76;94.90
76694;BME280;65625;52.136;5.424;2023-03-03T07:02:20;102745.94;;;1.77;95.65
76694;BME280;65625;52.136;5.424;2023-03-03T07:04:47;102752.09;;;1.82;95.49
76694;BME280;65625;52.136;5.424;2023-03-03T07:07:20;102754.75;;;1.85;95.68
76694;BME280;65625;52.136;5.424;2023-03-03T07:09:49;102761.81;;;1.88;94.81
76694;BME280;65625;52.136;5.424;2023-03-03T07:12:19;102756.47;;;1.91;94.77
76694;BME280;65625;52.136;5.424;2023-03-03T07:14:50;102756.44;;;1.92;94.76
76694;BME280;65625;52.136;5.424;2023-03-03T07:17:23;102768.00;;;1.93;94.82
76694;BME280;65625;52.136;5.424;2023-03-03T07:19:50;102767.03;;;2.00;95.60
76694;BME280;65625;52.136;5.424;2023-03-03T07:22:20;102764.34;;;2.03;95.34
76694;BME280;65625;52.136;5.424;2023-03-03T07:24:50;102766.97;;;2.06;94.78
76694;BME280;65625;52.136;5.424;2023-03-03T07:29:49;102773.13;;;2.12;95.02
76694;BME280;65625;52.136;5.424;2023-03-03T07:32:39;102767.72;;;2.20;95.23
76694;BME280;65625;52.136;5.424;2023-03-03T07:37:52;102773.91;;;2.23;94.60
76694;BME280;65625;52.136;5.424;2023-03-03T07:40:38;102782.75;;;2.28;94.49
76694;BME280;65625;52.136;5.424;2023-03-03T07:43:30;102785.34;;;2.33;94.59
76694;BME280;65625;52.136;5.424;2023-03-03T07:46:23;102787.09;;;2.37;94.29
76694;BME280;65625;52.136;5.424;2023-03-03T07:48:51;102794.16;;;2.39;94.37
76694;BME280;65625;52.136;5.424;2023-03-03T07:51:35;102793.25;;;2.40;94.14
76694;BME280;65625;52.136;5.424;2023-03-03T07:54:25;102798.47;;;2.51;94.23
76694;BME280;65625;52.136;5.424;2023-03-03T07:57:11;102793.09;;;2.54;93.82
76694;BME280;65625;52.136;5.424;2023-03-03T07:59:45;102792.25;;;2.52;93.69
76694;BME280;65625;52.136;5.424;2023-03-03T08:02:29;102797.50;;;2.58;93.77
76694;BME280;65625;52.136;5.424;2023-03-03T08:04:58;102803.59;;;2.68;93.46
76694;BME280;65625;52.136;5.424;2023-03-03T08:07:25;102809.72;;;2.79;93.40
76694;BME280;65625;52.136;5.424;2023-03-03T08:09:58;102810.56;;;2.84;93.82
76694;BME280;65625;52.136;5.424;2023-03-03T08:12:41;102816.78;;;2.81;93.59
76694;BME280;65625;52.136;5.424;2023-03-03T08:15:27;102823.06;;;2.79;93.21
76694;BME280;65625;52.136;5.424;2023-03-03T08:17:59;102818.53;;;2.85;93.34
76694;BME280;65625;52.136;5.424;2023-03-03T08:20:43;102830.00;;;2.92;93.40
76694;BME280;65625;52.136;5.424;2023-03-03T08:23:12;102829.09;;;2.91;93.42
76694;BME280;65625;52.136;5.424;2023-03-03T08:25:39;102825.53;;;2.91;93.01
76694;BME280;65625;52.136;5.424;2023-03-03T08:28:08;102827.28;;;2.95;93.42
76694;BME280;65625;52.136;5.424;2023-03-03T08:30:35;102835.19;;;3.04;93.00
76694;BME280;65625;52.136;5.424;2023-03-03T08:33:01;102835.06;;;3.11;92.97
76694;BME280;65625;52.136;5.424;2023-03-03T08:35:28;102839.28;;;3.29;92.74
76694;BME280;65625;52.136;5.424;2023-03-03T08:37:54;102831.22;;;3.33;92.71
76694;BME280;65625;52.136;5.424;2023-03-03T08:40:21;102834.75;;;3.35;92.20
76694;BME280;65625;52.136;5.424;2023-03-03T08:42:48;102831.13;;;3.39;92.58
76694;BME280;65625;52.136;5.424;2023-03-03T08:45:14;102839.88;;;3.49;92.24
76694;BME280;65625;52.136;5.424;2023-03-03T08:47:41;102835.31;;;3.58;91.90
76694;BME280;65625;52.136;5.424;2023-03-03T08:50:09;102837.72;;;3.75;91.73
76694;BME280;65625;52.136;5.424;2023-03-03T08:52:35;102833.19;;;3.81;91.60
76694;BME280;65625;52.136;5.424;2023-03-03T08:55:02;102835.75;;;3.86;91.16
76694;BME280;65625;52.136;5.424;2023-03-03T08:57:29;102832.78;;;4.04;90.70
76694;BME280;65625;52.136;5.424;2023-03-03T08:59:56;102829.19;;;4.07;90.55
76694;BME280;65625;52.136;5.424;2023-03-03T09:02:23;102823.28;;;4.38;90.11
76694;BME280;65625;52.136;5.424;2023-03-03T09:04:49;102830.41;;;4.38;89.60
76694;BME280;65625;52.136;5.424;2023-03-03T09:07:16;102825.28;;;4.27;89.18
76694;BME280;65625;52.136;5.424;2023-03-03T09:09:42;102835.84;;;4.35;89.59
76694;BME280;65625;52.136;5.424;2023-03-03T09:12:17;102827.69;;;4.42;88.82
76694;BME280;65625;52.136;5.424;2023-03-03T09:14:44;102830.38;;;4.42;89.09
76694;BME280;65625;52.136;5.424;2023-03-03T09:17:23;102831.25;;;4.41;89.05
76694;BME280;65625;52.136;5.424;2023-03-03T09:19:51;102830.31;;;4.45;89.12
76694;BME280;65625;52.136;5.424;2023-03-03T09:22:23;102823.84;;;4.57;88.02
76694;BME280;65625;52.136;5.424;2023-03-03T09:24:56;102828.81;;;4.75;88.15
76694;BME280;65625;52.136;5.424;2023-03-03T09:27:29;102828.72;;;4.79;87.73
76694;BME280;65625;52.136;5.424;2023-03-03T09:32:52;102831.06;;;4.96;87.44
76694;BME280;65625;52.136;5.424;2023-03-03T09:35:35;102831.91;;;4.98;86.71
76694;BME280;65625;52.136;5.424;2023-03-03T09:38:24;102828.03;;;5.12;86.45
76694;BME280;65625;52.136;5.424;2023-03-03T09:41:09;102834.78;;;5.32;86.55
76694;BME280;65625;52.136;5.424;2023-03-03T09:55:04;102840.19;;;5.29;85.96
76694;BME280;65625;52.136;5.424;2023-03-03T10:00:54;102839.56;;;5.57;84.38
76694;BME280;65625;52.136;5.424;2023-03-03T10:06:22;102844.47;;;6.13;82.99
76694;BME280;65625;52.136;5.424;2023-03-03T10:11:32;102825.06;;;9.83;77.31
76694;BME280;65625;52.136;5.424;2023-03-03T10:14:16;102811.66;;;14.71;60.91
76694;BME280;65625;52.136;5.424;2023-03-03T10:19:40;102806.03;;;13.99;54.86
76694;BME280;65625;52.136;5.424;2023-03-03T10:25:16;102799.25;;;15.80;49.77
76694;BME280;65625;52.136;5.424;2023-03-03T10:45:44;102792.53;;;16.90;45.69
76694;BME280;65625;52.136;5.424;2023-03-03T10:48:49;102794.53;;;18.22;43.92
76694;BME280;65625;52.136;5.424;2023-03-03T10:51:24;102794.72;;;19.12;39.53
76694;BME280;65625;52.136;5.424;2023-03-03T10:56:59;102795.56;;;17.48;41.99
76694;BME280;65625;52.136;5.424;2023-03-03T11:07:34;102802.78;;;15.68;45.86
76694;BME280;65625;52.136;5.424;2023-03-03T11:10:23;102804.53;;;14.98;47.12
76694;BME280;65625;52.136;5.424;2023-03-03T11:13:15;102806.41;;;15.12;45.39
76694;BME280;65625;52.136;5.424;2023-03-03T11:18:24;102804.53;;;13.32;50.02
76694;BME280;65625;52.136;5.424;2023-03-03T11:23:49;102790.47;;;13.56;49.32
76694;BME280;65625;52.136;5.424;2023-03-03T11:29:38;102768.72;;;17.79;40.18
76694;BME280;65625;52.136;5.424;2023-03-03T11:32:20;102762.47;;;17.40;39.61
76694;BME280;65625;52.136;5.424;2023-03-03T11:34:57;102764.03;;;17.68;39.66
76694;BME280;65625;52.136;5.424;2023-03-03T11:37:34;102768.72;;;18.26;37.70
76694;BME280;65625;52.136;5.424;2023-03-03T11:40:11;102773.00;;;16.84;40.83
76694;BME280;65625;52.136;5.424;2023-03-03T11:42:51;102794.13;;;13.71;45.79
76694;BME280;65625;52.136;5.424;2023-03-03T11:45:25;102783.88;;;11.38;51.06
76694;BME280;65625;52.136;5.424;2023-03-03T11:48:00;102790.59;;;10.53;55.52
76694;BME280;65625;52.136;5.424;2023-03-03T11:50:35;102786.19;;;10.50;55.43
76694;BME280;65625;52.136;5.424;2023-03-03T11:53:17;102791.47;;;10.11;57.61
76694;BME280;65625;52.136;5.424;2023-03-03T11:55:59;102782.69;;;10.48;56.43
76694;BME280;65625;52.136;5.424;2023-03-03T11:58:45;102789.78;;;10.51;55.74
76694;BME280;65625;52.136;5.424;2023-03-03T12:01:22;102786.69;;;10.60;55.03
76694;BME280;65625;52.136;5.424;2023-03-03T12:04:03;102775.47;;;10.07;55.61
76694;BME280;65625;52.136;5.424;2023-03-03T12:17:47;102780.63;;;10.35;56.56
76694;BME280;65625;52.136;5.424;2023-03-03T12:26:11;102766.09;;;10.57;54.73
76694;BME280;65625;52.136;5.424;2023-03-03T12:28:54;102760.16;;;10.69;56.63
76694;BME280;65625;52.136;5.424;2023-03-03T12:32:01;102758.31;;;10.70;55.92
76694;BME280;65625;52.136;5.424;2023-03-03T12:34:53;102756.34;;;10.53;55.89
76694;BME280;65625;52.136;5.424;2023-03-03T12:40:35;102753.44;;;9.76;55.66
76694;BME280;65625;52.136;5.424;2023-03-03T12:48:43;102745.50;;;10.14;54.09
76694;BME280;65625;52.136;5.424;2023-03-03T12:54:06;102748.91;;;10.78;53.43
76694;BME280;65625;52.136;5.424;2023-03-03T12:59:24;102743.75;;;10.34;56.68
76694;BME280;65625;52.136;5.424;2023-03-03T13:04:55;102746.19;;;10.19;58.92
76694;BME280;65625;52.136;5.424;2023-03-03T13:07:40;102742.34;;;10.03;58.21
76694;BME280;65625;52.136;5.424;2023-03-03T13:15:27;102740.13;;;9.50;60.55
76694;BME280;65625;52.136;5.424;2023-03-03T13:18:09;102745.06;;;9.39;60.27
76694;BME280;65625;52.136;5.424;2023-03-03T13:20:49;102744.72;;;9.25;60.21
76694;BME280;65625;52.136;5.424;2023-03-03T13:23:43;102745.22;;;9.13;60.50
76694;BME280;65625;52.136;5.424;2023-03-03T13:26:24;102743.44;;;9.12;59.68
76694;BME280;65625;52.136;5.424;2023-03-03T13:31:25;102739.19;;;9.06;58.64
76694;BME280;65625;52.136;5.424;2023-03-03T13:33:55;102736.53;;;9.05;59.48
76694;BME280;65625;52.136;5.424;2023-03-03T13:36:47;102733.91;;;9.03;60.71
76694;BME280;65625;52.136;5.424;2023-03-03T13:39:33;102742.31;;;8.95;61.22
76694;BME280;65625;52.136;5.424;2023-03-03T13:42:13;102744.28;;;8.90;61.57
76694;BME280;65625;52.136;5.424;2023-03-03T13:44:45;102745.13;;;8.92;60.96
76694;BME280;65625;52.136;5.424;2023-03-03T13:47:47;102743.78;;;8.81;62.06
76694;BME280;65625;52.136;5.424;2023-03-03T13:51:02;102743.84;;;8.78;62.87
76694;BME280;65625;52.136;5.424;2023-03-03T13:53:58;102739.25;;;8.81;62.91
76694;BME280;65625;52.136;5.424;2023-03-03T13:57:17;102733.00;;;8.81;62.62
76694;BME280;65625;52.136;5.424;2023-03-03T13:59:39;102736.34;;;8.87;63.22
76694;BME280;65625;52.136;5.424;2023-03-03T14:02:45;102734.22;;;8.72;62.02
76694;BME280;65625;52.136;5.424;2023-03-03T14:08:00;102734.34;;;8.45;62.90
76694;BME280;65625;52.136;5.424;2023-03-03T14:10:39;102738.28;;;8.35;63.26
76694;BME280;65625;52.136;5.424;2023-03-03T14:13:08;102738.63;;;8.26;63.33
76694;BME280;65625;52.136;5.424;2023-03-03T14:15:44;102736.81;;;8.26;62.91
76694;BME280;65625;52.136;5.424;2023-03-03T14:18:27;102728.41;;;8.35;63.13
76694;BME280;65625;52.136;5.424;2023-03-03T14:21:02;102738.94;;;8.41;62.31
76694;BME280;65625;52.136;5.424;2023-03-03T14:23:40;102727.09;;;8.47;63.35
76694;BME280;65625;52.136;5.424;2023-03-03T14:26:10;102723.44;;;8.48;63.52
76694;BME280;65625;52.136;5.424;2023-03-03T14:28:41;102723.38;;;8.51;62.07
76694;BME280;65625;52.136;5.424;2023-03-03T14:31:18;102718.00;;;8.51;61.55
76694;BME280;65625;52.136;5.424;2023-03-03T14:34:24;102713.41;;;8.53;61.20
76694;BME280;65625;52.136;5.424;2023-03-03T14:36:59;102710.63;;;8.56;61.90
76694;BME280;65625;52.136;5.424;2023-03-03T14:39:35;102719.34;;;8.62;60.95
76694;BME280;65625;52.136;5.424;2023-03-03T14:42:31;102717.41;;;8.66;60.89
76694;BME280;65625;52.136;5.424;2023-03-03T14:44:59;102714.41;;;8.73;60.03
76694;BME280;65625;52.136;5.424;2023-03-03T14:47:27;102717.06;;;8.75;59.99
76694;BME280;65625;52.136;5.424;2023-03-03T14:49:56;102711.59;;;8.76;58.85
76694;BME280;65625;52.136;5.424;2023-03-03T14:52:31;102705.38;;;8.76;58.64
76694;BME280;65625;52.136;5.424;2023-03-03T14:55:00;102708.28;;;8.70;58.89
76694;BME280;65625;52.136;5.424;2023-03-03T14:57:39;102709.16;;;8.70;58.38
76694;BME280;65625;52.136;5.424;2023-03-03T15:07:54;102702.13;;;8.66;59.75
76694;BME280;65625;52.136;5.424;2023-03-03T15:15:48;102701.84;;;8.51;60.03
76694;BME280;65625;52.136;5.424;2023-03-03T15:18:15;102694.97;;;8.42;60.73
76694;BME280;65625;52.136;5.424;2023-03-03T15:21:04;102692.63;;;8.33;60.88
76694;BME280;65625;52.136;5.424;2023-03-03T15:29:10;102691.03;;;8.28;60.81
76694;BME280;65625;52.136;5.424;2023-03-03T15:34:56;102686.22;;;8.11;61.08
76694;BME280;65625;52.136;5.424;2023-03-03T15:40:28;102680.81;;;8.11;61.77
76694;BME280;65625;52.136;5.424;2023-03-03T15:43:34;102687.03;;;8.13;61.57
76694;BME280;65625;52.136;5.424;2023-03-03T16:03:12;102682.13;;;7.49;62.52
76694;BME280;65625;52.136;5.424;2023-03-03T16:05:45;102676.81;;;7.47;62.55
76694;BME280;65625;52.136;5.424;2023-03-03T16:11:25;102682.75;;;7.31;62.61
76694;BME280;65625;52.136;5.424;2023-03-03T16:17:16;102686.59;;;7.22;63.20
76694;BME280;65625;52.136;5.424;2023-03-03T16:20:00;102697.50;;;7.16;62.28
76694;BME280;65625;52.136;5.424;2023-03-03T16:28:09;102689.09;;;7.01;62.08
76694;BME280;65625;52.136;5.424;2023-03-03T16:30:51;102688.97;;;7.04;62.99
76694;BME280;65625;52.136;5.424;2023-03-03T16:36:31;102678.41;;;6.98;63.33
76694;BME280;65625;52.136;5.424;2023-03-03T16:39:14;102683.94;;;6.93;63.07